Sakura — JG5711 — position and weather

sailwx.info

Track history (hours):
 
Tides and Currents Weather Stations Pressure Air Temp Water Temp Dewpoint Dewpoint Depression Visibility Wind Speed Wind Dir Waves Ship Positions

Sakura

Last reported at 2018-Apr-21 09:09 UTC. Time now 2018-Apr-21 13:39 UTC.
Position N 35°27' E 139°40'.

Length 32 m; draft 3.6 m.

Type: Tug. MMSI: 431101178.

Date/timePositionNaut miles runAvg speedWind from/ knotsBaromVisibWave heightAir tempDewpointWater temp
2018-Apr-21 09:09N 35°27' E 139°40'0 0.0
2018-Apr-21 09:00N 35°27' E 139°40'2 4.7
2018-Apr-21 08:30N 35°27' E 139°43'3 5.0
2018-Apr-21 08:00N 35°29' E 139°44'1 2.9
2018-Apr-21 07:30N 35°28' E 139°46'1 1.7
2018-Apr-21 07:00N 35°28' E 139°45'4 8.6
2018-Apr-21 06:30N 35°27' E 139°40'0 0.0
2018-Apr-21 06:00N 35°27' E 139°40'0 0.0
2018-Apr-21 05:30N 35°27' E 139°40'0 0.0
2018-Apr-21 05:00N 35°27' E 139°40'0 0.0
2018-Apr-21 04:30N 35°27' E 139°40'0 0.0
2018-Apr-21 04:00N 35°27' E 139°40'0 0.0
2018-Apr-21 03:30N 35°27' E 139°40'0 0.0
2018-Apr-21 03:00N 35°27' E 139°40'0 0.0
2018-Apr-21 02:30N 35°27' E 139°40'0 0.0
2018-Apr-21 02:00N 35°27' E 139°40'0 0.0
2018-Apr-21 01:30N 35°27' E 139°40'1 1.2
2018-Apr-21 01:00N 35°27' E 139°39'2 3.7
2018-Apr-21 00:30N 35°28' E 139°41'0 1.0
2018-Apr-21 00:00N 35°28' E 139°41'0 0.6
2018-Apr-20 23:30N 35°28' E 139°42'2 4.3
2018-Apr-20 23:00N 35°27' E 139°40'0 0.0
2018-Apr-20 22:30N 35°27' E 139°40'0 0.0
2018-Apr-20 22:00N 35°27' E 139°40'0 0.0
2018-Apr-20 21:30N 35°27' E 139°40'0 0.0
2018-Apr-20 21:01N 35°27' E 139°40'0 0.0
2018-Apr-20 20:31N 35°27' E 139°40'0 0.0
2018-Apr-20 20:01N 35°27' E 139°40'0 0.0
2018-Apr-20 19:31N 35°27' E 139°40'0 0.0
2018-Apr-20 19:01N 35°27' E 139°40'0 0.0
2018-Apr-20 18:31N 35°27' E 139°40'0 0.0
2018-Apr-20 18:01N 35°27' E 139°40'0 0.0
2018-Apr-20 17:30N 35°27' E 139°40'0 0.0
2018-Apr-20 17:00N 35°27' E 139°40'0 0.0
2018-Apr-20 16:30N 35°27' E 139°40'0 0.0
2018-Apr-20 16:01N 35°27' E 139°40'0 0.0
2018-Apr-20 15:31N 35°27' E 139°40'0 0.0
2018-Apr-20 15:01N 35°27' E 139°40'0 0.0
2018-Apr-20 14:30N 35°27' E 139°40'0 0.0
2018-Apr-20 14:00N 35°27' E 139°40'0 0.0
2018-Apr-20 13:30N 35°27' E 139°40'0 0.0
2018-Apr-20 13:00N 35°27' E 139°40'0 0.0
2018-Apr-20 12:31N 35°27' E 139°40'0 0.0
2018-Apr-20 12:01N 35°27' E 139°40'0 0.0
2018-Apr-20 11:31N 35°27' E 139°40'0 0.0
2018-Apr-20 11:00N 35°27' E 139°40'0 0.0
2018-Apr-20 10:30N 35°27' E 139°40'0 0.0
2018-Apr-20 10:00N 35°27' E 139°40'0 0.0
2018-Apr-20 09:31N 35°27' E 139°40'0 0.0
2018-Apr-20 09:00N 35°27' E 139°40'0 0.0
2018-Apr-20 08:31N 35°27' E 139°40'0 0.0
2018-Apr-20 08:01N 35°27' E 139°40'0 0.0
2018-Apr-20 07:31N 35°27' E 139°40'0 0.0
2018-Apr-20 07:01N 35°27' E 139°40'0 0.0
2018-Apr-20 06:30N 35°27' E 139°40'0 0.0
2018-Apr-20 06:01N 35°27' E 139°40'0 0.0
2018-Apr-20 05:30N 35°27' E 139°40'0 0.0
2018-Apr-20 05:00N 35°27' E 139°40'0 0.0
2018-Apr-20 04:30N 35°27' E 139°40'0 0.0
2018-Apr-20 04:01N 35°27' E 139°40'0 0.0
2018-Apr-20 03:30N 35°27' E 139°40'0 0.0
2018-Apr-20 03:01N 35°27' E 139°40'0 0.0
2018-Apr-20 02:31N 35°27' E 139°40'0 0.0
2018-Apr-20 02:01N 35°27' E 139°40'0 0.0
2018-Apr-20 01:30N 35°27' E 139°40'0 0.0
2018-Apr-20 01:01N 35°27' E 139°40'0 0.0
2018-Apr-20 00:31N 35°27' E 139°40'0 0.0
2018-Apr-20 00:00N 35°27' E 139°40'0 0.0
2018-Apr-19 23:31N 35°27' E 139°40'0 0.0
2018-Apr-19 23:00N 35°27' E 139°40'2 3.1
2018-Apr-19 22:31N 35°28' E 139°41'0 0.5
2018-Apr-19 22:01N 35°28' E 139°41'1 2.8
2018-Apr-19 21:31N 35°28' E 139°43'2 3.4
2018-Apr-19 21:00N 35°27' E 139°44'2 3.9
2018-Apr-19 20:31N 35°27' E 139°42'0 0.0
2018-Apr-19 20:01N 35°27' E 139°42'0 0.0
2018-Apr-19 19:31N 35°27' E 139°42'0 0.0
2018-Apr-19 19:01N 35°27' E 139°42'0 0.0
2018-Apr-19 18:30N 35°27' E 139°42'0 0.0
2018-Apr-19 18:00N 35°27' E 139°42'0 0.0
2018-Apr-19 17:31N 35°27' E 139°42'0 0.0
2018-Apr-19 17:00N 35°27' E 139°42'0 0.0
2018-Apr-19 16:31N 35°27' E 139°42'0 0.0
2018-Apr-19 16:01N 35°27' E 139°42'0 0.0
2018-Apr-19 15:31N 35°27' E 139°42'0 0.0
2018-Apr-19 15:00N 35°27' E 139°42'0 0.0
2018-Apr-19 14:31N 35°27' E 139°42'1 1.7
2018-Apr-19 14:01N 35°27' E 139°41'0 0.1
2018-Apr-19 13:30N 35°27' E 139°41'1 2.5
2018-Apr-19 13:00N 35°27' E 139°40'0 0.0
2018-Apr-19 12:31N 35°27' E 139°40'1 2.9
2018-Apr-19 12:01N 35°28' E 139°41'611.4
2018-Apr-19 11:31N 35°30' E 139°47'3 5.6
2018-Apr-19 11:00N 35°30' E 139°44'0 0.7
2018-Apr-19 10:30N 35°30' E 139°43'1 2.7
2018-Apr-19 10:00N 35°29' E 139°42'1 2.4
2018-Apr-19 09:30N 35°28' E 139°42'0 0.4
2018-Apr-19 09:00N 35°28' E 139°41'1 1.5
2018-Apr-19 08:30N 35°28' E 139°42'0 0.0
2018-Apr-19 08:01N 35°28' E 139°42'0 0.0
2018-Apr-19 07:31N 35°28' E 139°42'2 3.8
2018-Apr-19 07:00N 35°26' E 139°41'0 0.1
2018-Apr-19 06:30N 35°26' E 139°41'1 2.4
2018-Apr-19 06:00N 35°27' E 139°40'0 0.0
2018-Apr-19 05:30N 35°27' E 139°40'0 0.0
2018-Apr-19 05:01N 35°27' E 139°40'0 0.0
2018-Apr-19 04:31N 35°27' E 139°40'0 0.0
2018-Apr-19 04:00N 35°27' E 139°40'0 0.0
2018-Apr-19 03:31N 35°27' E 139°40'0 0.0
2018-Apr-19 03:00N 35°27' E 139°40'0 0.0
2018-Apr-19 02:31N 35°27' E 139°40'0 0.0
2018-Apr-19 02:01N 35°27' E 139°40'0 0.0
2018-Apr-19 01:30N 35°27' E 139°40'0 0.0
2018-Apr-19 01:00N 35°27' E 139°40'0 0.6
2018-Apr-19 00:31N 35°27' E 139°39'0 0.3
2018-Apr-19 00:01N 35°27' E 139°40'0 0.1
2018-Apr-18 23:30N 35°27' E 139°40'3 6.3
2018-Apr-18 23:01N 35°29' E 139°42'4 7.4
2018-Apr-18 22:31N 35°31' E 139°46'2 3.3
2018-Apr-18 22:01N 35°30' E 139°45'3 6.5
2018-Apr-18 21:31N 35°27' E 139°43'1 2.3
2018-Apr-18 21:01N 35°26' E 139°44'4 7.4
2018-Apr-18 20:30N 35°27' E 139°40'0 0.6
2018-Apr-18 20:00N 35°27' E 139°40'0 0.0
2018-Apr-18 19:31N 35°27' E 139°40'0 0.0
2018-Apr-18 19:01N 35°27' E 139°40'0 0.0
2018-Apr-18 18:30N 35°27' E 139°40'0 0.0
2018-Apr-18 18:00N 35°27' E 139°40'0 0.0
2018-Apr-18 17:30N 35°27' E 139°40'0 0.0
2018-Apr-18 17:00N 35°27' E 139°40'0 0.0
2018-Apr-18 16:30N 35°27' E 139°40'0 0.0
2018-Apr-18 16:01N 35°27' E 139°40'0 0.0
2018-Apr-18 15:30N 35°27' E 139°40'0 0.0
2018-Apr-18 15:00N 35°27' E 139°40'0 0.0
2018-Apr-18 14:31N 35°27' E 139°40'0 0.0
2018-Apr-18 14:00N 35°27' E 139°40'0 0.0
2018-Apr-18 13:30N 35°27' E 139°40'0 0.0
2018-Apr-18 13:01N 35°27' E 139°40'0 0.0
2018-Apr-18 12:31N 35°27' E 139°40'0 0.0
2018-Apr-18 12:01N 35°27' E 139°40'0 0.0
2018-Apr-18 11:31N 35°27' E 139°40'0 0.0
2018-Apr-18 11:01N 35°27' E 139°40'0 0.0
2018-Apr-18 10:29N 35°27' E 139°40'0 0.0
2018-Apr-18 10:00N 35°27' E 139°40'1 2.0
2018-Apr-18 09:30N 35°27' E 139°41'1 2.2
2018-Apr-18 09:01N 35°26' E 139°42'2 4.5
2018-Apr-18 08:30N 35°26' E 139°45'3 5.2
2018-Apr-18 08:00N 35°27' E 139°42'0 0.0
2018-Apr-18 07:30N 35°27' E 139°42'0 0.0
2018-Apr-18 07:00N 35°27' E 139°42'0 0.0
2018-Apr-18 06:30N 35°27' E 139°42'0 0.0
2018-Apr-18 06:00N 35°27' E 139°42'1 1.8
2018-Apr-18 05:31N 35°27' E 139°43'1 2.0
2018-Apr-18 05:01N 35°28' E 139°42'0 0.1
2018-Apr-18 04:30N 35°28' E 139°42'2 3.4
2018-Apr-18 04:00N 35°27' E 139°40'0 0.0
2018-Apr-18 03:30N 35°27' E 139°40'0 0.0
2018-Apr-18 03:00N 35°27' E 139°40'0 0.0
2018-Apr-18 02:30N 35°27' E 139°40'0 0.0
2018-Apr-18 02:00N 35°27' E 139°40'0 0.0
2018-Apr-18 01:30N 35°27' E 139°40'0 0.0
2018-Apr-18 01:00N 35°27' E 139°40'0 0.0
2018-Apr-18 00:30N 35°27' E 139°40'0 0.0
2018-Apr-18 00:00N 35°27' E 139°40'0 0.0
2018-Apr-17 23:30N 35°27' E 139°40'0 0.0
2018-Apr-17 23:00N 35°27' E 139°40'0 0.0
2018-Apr-17 22:30N 35°27' E 139°40'0 0.0
2018-Apr-17 22:00N 35°27' E 139°40'0 0.0
2018-Apr-17 21:30N 35°27' E 139°40'0 0.0
2018-Apr-17 21:00N 35°27' E 139°40'0 0.0
2018-Apr-17 20:30N 35°27' E 139°40'0 0.0
2018-Apr-17 20:00N 35°27' E 139°40'0 0.0
2018-Apr-17 19:30N 35°27' E 139°40'0 0.0
2018-Apr-17 19:00N 35°27' E 139°40'0 0.0
2018-Apr-17 18:31N 35°27' E 139°40'0 0.0
2018-Apr-17 18:00N 35°27' E 139°40'0 0.0
2018-Apr-17 17:30N 35°27' E 139°40'0 0.0
2018-Apr-17 17:00N 35°27' E 139°40'0 0.0
2018-Apr-17 16:31N 35°27' E 139°40'0 0.0
2018-Apr-17 16:00N 35°27' E 139°40'0 0.0
2018-Apr-17 15:30N 35°27' E 139°40'0 0.0
2018-Apr-17 15:00N 35°27' E 139°40'0 0.0
2018-Apr-17 14:30N 35°27' E 139°40'0 0.0
2018-Apr-16 23:18N 35°27' E 139°40'1 2.5
2018-Apr-16 23:00N 35°28' E 139°40'1 2.1
2018-Apr-16 22:30N 35°28' E 139°41'1 2.0
2018-Apr-16 22:00N 35°28' E 139°42'1 1.4
2018-Apr-16 21:30N 35°27' E 139°42'0 0.0
2018-Apr-16 21:00N 35°27' E 139°42'1 1.5
2018-Apr-16 20:30N 35°27' E 139°42'1 1.3
2018-Apr-16 20:00N 35°26' E 139°41'0 0.1
2018-Apr-16 19:30N 35°26' E 139°41'0 0.8
2018-Apr-16 19:00N 35°27' E 139°41'0 0.0
2018-Apr-16 18:30N 35°27' E 139°41'0 0.0
2018-Apr-16 18:00N 35°27' E 139°41'0 0.0
2018-Apr-16 17:30N 35°27' E 139°41'0 0.0
2018-Apr-16 17:00N 35°27' E 139°41'0 0.0
2018-Apr-16 16:30N 35°27' E 139°41'0 0.0
2018-Apr-16 16:00N 35°27' E 139°41'0 0.0
2018-Apr-16 15:30N 35°27' E 139°41'0 0.0
2018-Apr-16 15:00N 35°27' E 139°41'0 0.0
2018-Apr-16 14:30N 35°27' E 139°41'0 0.0
2018-Apr-16 14:00N 35°27' E 139°41'0 0.2
2018-Apr-16 13:30N 35°27' E 139°41'0 0.2
2018-Apr-16 13:00N 35°27' E 139°41'1 2.5
2018-Apr-16 12:30N 35°26' E 139°42'1 1.1
2018-Apr-16 12:00N 35°27' E 139°42'0 0.0
2018-Apr-16 11:30N 35°27' E 139°42'0 0.0
2018-Apr-16 11:00N 35°27' E 139°42'0 0.0
2018-Apr-16 10:30N 35°27' E 139°42'0 0.0
2018-Apr-16 10:00N 35°27' E 139°42'0 0.0
2018-Apr-16 09:30N 35°27' E 139°42'1 2.0
2018-Apr-16 09:00N 35°28' E 139°42'1 2.0
2018-Apr-16 08:30N 35°27' E 139°43'2 3.8
2018-Apr-16 08:00N 35°26' E 139°42'2 4.4
2018-Apr-16 07:30N 35°27' E 139°40'0 0.0
2018-Apr-16 07:00N 35°27' E 139°40'0 0.0
2018-Apr-16 06:30N 35°27' E 139°40'0 0.0
2018-Apr-16 06:00N 35°27' E 139°40'3 6.7
2018-Apr-16 05:30N 35°29' E 139°43'0 0.6
2018-Apr-16 05:00N 35°29' E 139°43'2 4.6
2018-Apr-16 04:30N 35°27' E 139°42'0 0.0
2018-Apr-16 04:00N 35°27' E 139°42'0 0.0
2018-Apr-16 03:30N 35°27' E 139°42'2 4.8
2018-Apr-16 03:01N 35°29' E 139°45'0 0.5
2018-Apr-16 02:30N 35°29' E 139°44'2 3.8
2018-Apr-16 02:00N 35°27' E 139°43'3 5.9
2018-Apr-16 01:30N 35°27' E 139°40'0 0.0
2018-Apr-16 01:00N 35°27' E 139°40'0 0.0
2018-Apr-16 00:30N 35°27' E 139°40'0 0.0
2018-Apr-16 00:00N 35°27' E 139°40'3 5.0
2018-Apr-15 23:30N 35°27' E 139°43'4 7.6
2018-Apr-15 23:00N 35°30' E 139°46'1 1.2
2018-Apr-15 22:30N 35°30' E 139°47'0 0.6
2018-Apr-15 22:01N 35°30' E 139°47'1 2.0
2018-Apr-15 21:30N 35°29' E 139°46'4 7.9
2018-Apr-15 21:00N 35°27' E 139°42'2 3.7
2018-Apr-15 20:30N 35°27' E 139°40'0 0.0
2018-Apr-15 20:00N 35°27' E 139°40'0 0.0
2018-Apr-15 19:30N 35°27' E 139°40'0 0.0
2018-Apr-15 07:50N 35°27' E 139°40'0 0.0
2018-Apr-15 07:30N 35°27' E 139°40'0 0.0
2018-Apr-15 07:00N 35°27' E 139°40'0 0.0
2018-Apr-15 06:30N 35°27' E 139°40'0 0.0
2018-Apr-15 06:00N 35°27' E 139°40'0 0.0
2018-Apr-15 05:30N 35°27' E 139°40'0 0.0
2018-Apr-15 05:00N 35°27' E 139°40'0 0.0
2018-Apr-15 04:30N 35°27' E 139°40'0 0.0
2018-Apr-15 04:00N 35°27' E 139°40'0 0.0
2018-Apr-15 03:30N 35°27' E 139°40'0 0.0
2018-Apr-15 03:00N 35°27' E 139°40'0 0.0
2018-Apr-15 02:30N 35°27' E 139°40'0 0.0
2018-Apr-15 02:00N 35°27' E 139°40'0 0.0
2018-Apr-15 01:30N 35°27' E 139°40'0 0.0
2018-Apr-15 01:00N 35°27' E 139°40'0 0.0
2018-Apr-15 00:30N 35°27' E 139°40'0 0.0
2018-Apr-15 00:00N 35°27' E 139°40'0 0.0
2018-Apr-14 23:30N 35°27' E 139°40'4 7.2
2018-Apr-14 23:00N 35°29' E 139°43'3 6.3
2018-Apr-14 22:30N 35°31' E 139°46'0 0.9
2018-Apr-14 22:00N 35°30' E 139°46'2 3.6
2018-Apr-14 21:31N 35°29' E 139°47'3 6.1
2018-Apr-14 21:00N 35°28' E 139°44'4 7.1
2018-Apr-14 20:30N 35°27' E 139°40'0 0.0
2018-Apr-14 20:00N 35°27' E 139°40'0 0.0
2018-Apr-14 19:30N 35°27' E 139°40'0 0.0
2018-Apr-14 19:00N 35°27' E 139°40'0 0.0
2018-Apr-14 18:30N 35°27' E 139°40'0 0.0
2018-Apr-14 18:01N 35°27' E 139°40'0 0.0
2018-Apr-14 17:31N 35°27' E 139°40'0 0.0
2018-Apr-14 17:00N 35°27' E 139°40'0 0.0
2018-Apr-14 16:31N 35°27' E 139°40'0 0.0
2018-Apr-14 16:00N 35°27' E 139°40'0 0.0
2018-Apr-14 15:30N 35°27' E 139°40'0 0.0
2018-Apr-14 15:01N 35°27' E 139°40'0 0.0
2018-Apr-14 14:31N 35°27' E 139°40'0 0.0
2018-Apr-14 14:01N 35°27' E 139°40'0 0.0
2018-Apr-14 13:31N 35°27' E 139°40'0 0.0
2018-Apr-14 13:01N 35°27' E 139°40'0 0.0
2018-Apr-14 12:30N 35°27' E 139°40'0 0.0
2018-Apr-14 12:00N 35°27' E 139°40'0 0.0
2018-Apr-14 11:31N 35°27' E 139°40'0 0.0
2018-Apr-14 11:00N 35°27' E 139°40'0 0.0
2018-Apr-14 10:30N 35°27' E 139°40'0 0.0
2018-Apr-14 10:01N 35°27' E 139°40'0 0.0
2018-Apr-14 09:30N 35°27' E 139°40'0 0.0
2018-Apr-14 09:00N 35°27' E 139°40'0 0.0
2018-Apr-14 08:31N 35°27' E 139°40'0 0.0
2018-Apr-14 08:00N 35°27' E 139°40'0 0.0
2018-Apr-14 07:30N 35°27' E 139°40'0 0.0
2018-Apr-14 07:00N 35°27' E 139°40'0 0.0
2018-Apr-14 06:31N 35°27' E 139°40'0 0.0
2018-Apr-14 06:00N 35°27' E 139°40'0 0.0
2018-Apr-14 05:30N 35°27' E 139°40'0 0.0
2018-Apr-14 05:00N 35°27' E 139°40'0 0.0
2018-Apr-14 04:30N 35°27' E 139°40'0 0.0
2018-Apr-14 04:00N 35°27' E 139°40'0 0.0
2018-Apr-14 03:30N 35°27' E 139°40'0 0.0
2018-Apr-14 03:00N 35°27' E 139°40'0 0.0
2018-Apr-14 02:30N 35°27' E 139°40'0 0.0
2018-Apr-14 02:00N 35°27' E 139°40'3 6.0
2018-Apr-14 01:30N 35°24' E 139°42'2 4.9
2018-Apr-14 01:00N 35°24' E 139°39'1 1.4
2018-Apr-14 00:30N 35°24' E 139°38'0 0.0
2018-Apr-14 00:00N 35°24' E 139°38'1 3.0
2018-Apr-13 23:31N 35°23' E 139°40'0 0.0
2018-Apr-13 23:00N 35°23' E 139°40'3 5.5
2018-Apr-13 22:31N 35°26' E 139°42'1 2.2
2018-Apr-13 22:01N 35°27' E 139°41'1 2.0
2018-Apr-13 21:30N 35°27' E 139°42'2 3.6
2018-Apr-13 21:00N 35°27' E 139°40'0 0.9
2018-Apr-13 20:29N 35°27' E 139°40'0 0.0
2018-Apr-13 20:00N 35°27' E 139°40'0 0.0
2018-Apr-13 19:30N 35°27' E 139°40'0 0.0
2018-Apr-13 19:00N 35°27' E 139°40'0 0.0
2018-Apr-13 18:30N 35°27' E 139°40'0 0.0
2018-Apr-13 18:00N 35°27' E 139°40'0 0.0
2018-Apr-13 17:30N 35°27' E 139°40'0 0.0
2018-Apr-13 17:00N 35°27' E 139°40'0 0.0
2018-Apr-13 16:30N 35°27' E 139°40'0 0.0
2018-Apr-13 16:00N 35°27' E 139°40'0 0.0
2018-Apr-13 15:30N 35°27' E 139°40'0 0.0
2018-Apr-13 15:00N 35°27' E 139°40'0 0.0
2018-Apr-13 14:30N 35°27' E 139°40'0 0.0
2018-Apr-13 14:00N 35°27' E 139°40'0 0.0
2018-Apr-13 13:30N 35°27' E 139°40'0 0.0
2018-Apr-13 13:00N 35°27' E 139°40'0 0.0
2018-Apr-13 12:29N 35°27' E 139°40'0 0.0
2018-Apr-13 12:00N 35°27' E 139°40'0 0.0
2018-Apr-13 11:30N 35°27' E 139°40'0 0.0
2018-Apr-13 11:00N 35°27' E 139°40'0 0.0
2018-Apr-13 09:28N 35°27' E 139°40'0 0.0
2018-Apr-13 09:01N 35°27' E 139°40'0 0.0
2018-Apr-13 08:30N 35°27' E 139°40'0 0.0
2018-Apr-13 08:01N 35°27' E 139°40'2 3.1
2018-Apr-13 07:30N 35°28' E 139°41'0 0.0
2018-Apr-13 07:00N 35°28' E 139°41'2 3.1
2018-Apr-13 06:30N 35°27' E 139°40'0 0.0
2018-Apr-13 06:00N 35°27' E 139°40'0 0.0
2018-Apr-13 05:30N 35°27' E 139°40'0 0.0
2018-Apr-13 05:00N 35°27' E 139°40'1 1.2
2018-Apr-13 04:30N 35°27' E 139°40'510.1
2018-Apr-13 04:00N 35°29' E 139°46'2 3.6
2018-Apr-13 03:30N 35°30' E 139°44'1 2.4
2018-Apr-13 03:00N 35°29' E 139°43'3 6.0
2018-Apr-13 02:30N 35°28' E 139°40'1 1.3
2018-Apr-13 02:00N 35°27' E 139°40'0 0.0
2018-Apr-13 01:30N 35°27' E 139°40'0 0.0
2018-Apr-13 01:00N 35°27' E 139°40'0 0.8
2018-Apr-13 00:30N 35°27' E 139°39'0 0.2
2018-Apr-13 00:00N 35°27' E 139°39'1 3.0
2018-Apr-12 23:31N 35°29' E 139°39'2 3.4
2018-Apr-12 23:00N 35°27' E 139°40'0 0.0
2018-Apr-12 22:29N 35°27' E 139°40'0 0.0
2018-Apr-12 22:00N 35°27' E 139°40'0 0.0
2018-Apr-12 21:30N 35°27' E 139°40'0 0.0
2018-Apr-12 21:00N 35°27' E 139°40'0 0.0
2018-Apr-12 20:30N 35°27' E 139°40'0 0.0
2018-Apr-12 20:00N 35°27' E 139°40'0 0.0
2018-Apr-12 19:30N 35°27' E 139°40'0 0.0
2018-Apr-12 19:00N 35°27' E 139°40'0 0.0
2018-Apr-12 18:30N 35°27' E 139°40'0 0.0
2018-Apr-12 18:00N 35°27' E 139°40'0 0.0
2018-Apr-12 17:30N 35°27' E 139°40'0 0.0
2018-Apr-12 17:00N 35°27' E 139°40'0 0.0
2018-Apr-12 16:30N 35°27' E 139°40'0 0.0
2018-Apr-12 16:00N 35°27' E 139°40'0 0.0
2018-Apr-12 15:30N 35°27' E 139°40'0 0.0
2018-Apr-12 15:00N 35°27' E 139°40'0 0.0
2018-Apr-12 14:30N 35°27' E 139°40'0 0.0
2018-Apr-12 14:00N 35°27' E 139°40'0 0.0
2018-Apr-12 13:30N 35°27' E 139°40'0 0.0
2018-Apr-12 13:00N 35°27' E 139°40'0 0.0
2018-Apr-12 12:30N 35°27' E 139°40'0 0.0
2018-Apr-12 12:00N 35°27' E 139°40'0 0.0
2018-Apr-12 11:30N 35°27' E 139°40'0 0.0
2018-Apr-12 11:00N 35°27' E 139°40'0 0.0
2018-Apr-12 10:30N 35°27' E 139°40'0 0.0
2018-Apr-12 10:00N 35°27' E 139°40'0 0.0
2018-Apr-12 08:32N 35°27' E 139°40'0 0.0
2018-Apr-12 08:30N 35°27' E 139°40'0 0.0
2018-Apr-12 08:00N 35°27' E 139°40'0 0.0
2018-Apr-12 07:31N 35°27' E 139°40'0 0.0
2018-Apr-12 07:01N 35°27' E 139°40'0 0.0
2018-Apr-12 06:30N 35°27' E 139°40'0 0.0
2018-Apr-12 06:00N 35°27' E 139°40'0 0.0
2018-Apr-12 05:31N 35°27' E 139°40'0 0.0
2018-Apr-12 05:00N 35°27' E 139°40'0 0.0
2018-Apr-12 04:31N 35°27' E 139°40'0 0.0
2018-Apr-12 04:00N 35°27' E 139°40'0 0.0
2018-Apr-12 03:30N 35°27' E 139°40'0 0.0
2018-Apr-12 02:59N 35°27' E 139°40'0 0.0
2018-Apr-12 02:31N 35°27' E 139°40'0 0.9
2018-Apr-12 02:01N 35°27' E 139°40'3 5.1
2018-Apr-12 01:30N 35°28' E 139°43'0 0.0
2018-Apr-12 01:00N 35°28' E 139°43'0 0.4
2018-Apr-12 00:30N 35°28' E 139°43'2 4.4
2018-Apr-12 00:01N 35°26' E 139°45'1 2.6
2018-Apr-11 23:31N 35°26' E 139°43'3 6.4
2018-Apr-11 23:00N 35°27' E 139°40'0 0.0
2018-Apr-11 22:31N 35°27' E 139°40'0 0.0
2018-Apr-11 22:00N 35°27' E 139°40'0 0.0
2018-Apr-11 21:30N 35°27' E 139°40'0 0.0
2018-Apr-11 21:01N 35°27' E 139°40'0 0.0
2018-Apr-11 20:31N 35°27' E 139°40'0 0.0
2018-Apr-11 20:01N 35°27' E 139°40'0 0.0
2018-Apr-11 19:30N 35°27' E 139°40'0 0.0
2018-Apr-11 19:00N 35°27' E 139°40'0 0.0
2018-Apr-11 18:30N 35°27' E 139°40'0 0.0
2018-Apr-11 18:00N 35°27' E 139°40'0 0.0
2018-Apr-11 17:30N 35°27' E 139°40'0 0.0
2018-Apr-11 17:00N 35°27' E 139°40'0 0.0
2018-Apr-11 16:30N 35°27' E 139°40'0 0.0
2018-Apr-11 16:00N 35°27' E 139°40'0 0.0
2018-Apr-11 15:30N 35°27' E 139°40'0 0.0
2018-Apr-11 15:00N 35°27' E 139°40'0 0.0
2018-Apr-11 14:30N 35°27' E 139°40'0 0.0
2018-Apr-11 14:00N 35°27' E 139°40'  
Track history (hours):
 
Tides and Currents Weather Stations Pressure Air Temp Water Temp Dewpoint Dewpoint Depression Visibility Wind Speed Wind Dir Waves Ship Positions

Sakura

Last reported at 2018-Apr-21 09:09 UTC. Time now 2018-Apr-21 13:39 UTC.
Position N 35°27' E 139°40'.

Length 32 m; draft 3.6 m.

Type: Tug. MMSI: 431101178.

Date/timePositionNaut miles runAvg speedWind from/ knotsBaromVisibWave heightAir tempDewpointWater temp
2018-Apr-21 09:09N 35°27' E 139°40'0 0.0
2018-Apr-21 09:00N 35°27' E 139°40'2 4.7
2018-Apr-21 08:30N 35°27' E 139°43'3 5.0
2018-Apr-21 08:00N 35°29' E 139°44'1 2.9
2018-Apr-21 07:30N 35°28' E 139°46'1 1.7
2018-Apr-21 07:00N 35°28' E 139°45'4 8.6
2018-Apr-21 06:30N 35°27' E 139°40'0 0.0
2018-Apr-21 06:00N 35°27' E 139°40'0 0.0
2018-Apr-21 05:30N 35°27' E 139°40'0 0.0
2018-Apr-21 05:00N 35°27' E 139°40'0 0.0
2018-Apr-21 04:30N 35°27' E 139°40'0 0.0
2018-Apr-21 04:00N 35°27' E 139°40'0 0.0
2018-Apr-21 03:30N 35°27' E 139°40'0 0.0
2018-Apr-21 03:00N 35°27' E 139°40'0 0.0
2018-Apr-21 02:30N 35°27' E 139°40'0 0.0
2018-Apr-21 02:00N 35°27' E 139°40'0 0.0
2018-Apr-21 01:30N 35°27' E 139°40'1 1.2
2018-Apr-21 01:00N 35°27' E 139°39'2 3.7
2018-Apr-21 00:30N 35°28' E 139°41'0 1.0
2018-Apr-21 00:00N 35°28' E 139°41'0 0.6
2018-Apr-20 23:30N 35°28' E 139°42'2 4.3
2018-Apr-20 23:00N 35°27' E 139°40'0 0.0
2018-Apr-20 22:30N 35°27' E 139°40'0 0.0
2018-Apr-20 22:00N 35°27' E 139°40'0 0.0
2018-Apr-20 21:30N 35°27' E 139°40'0 0.0
2018-Apr-20 21:01N 35°27' E 139°40'0 0.0
2018-Apr-20 20:31N 35°27' E 139°40'0 0.0
2018-Apr-20 20:01N 35°27' E 139°40'0 0.0
2018-Apr-20 19:31N 35°27' E 139°40'0 0.0
2018-Apr-20 19:01N 35°27' E 139°40'0 0.0
2018-Apr-20 18:31N 35°27' E 139°40'0 0.0
2018-Apr-20 18:01N 35°27' E 139°40'0 0.0
2018-Apr-20 17:30N 35°27' E 139°40'0 0.0
2018-Apr-20 17:00N 35°27' E 139°40'0 0.0
2018-Apr-20 16:30N 35°27' E 139°40'0 0.0
2018-Apr-20 16:01N 35°27' E 139°40'0 0.0
2018-Apr-20 15:31N 35°27' E 139°40'0 0.0
2018-Apr-20 15:01N 35°27' E 139°40'0 0.0
2018-Apr-20 14:30N 35°27' E 139°40'0 0.0
2018-Apr-20 14:00N 35°27' E 139°40'0 0.0
2018-Apr-20 13:30N 35°27' E 139°40'0 0.0
2018-Apr-20 13:00N 35°27' E 139°40'0 0.0
2018-Apr-20 12:31N 35°27' E 139°40'0 0.0
2018-Apr-20 12:01N 35°27' E 139°40'0 0.0
2018-Apr-20 11:31N 35°27' E 139°40'0 0.0
2018-Apr-20 11:00N 35°27' E 139°40'0 0.0
2018-Apr-20 10:30N 35°27' E 139°40'0 0.0
2018-Apr-20 10:00N 35°27' E 139°40'0 0.0
2018-Apr-20 09:31N 35°27' E 139°40'0 0.0
2018-Apr-20 09:00N 35°27' E 139°40'0 0.0
2018-Apr-20 08:31N 35°27' E 139°40'0 0.0
2018-Apr-20 08:01N 35°27' E 139°40'0 0.0
2018-Apr-20 07:31N 35°27' E 139°40'0 0.0
2018-Apr-20 07:01N 35°27' E 139°40'0 0.0
2018-Apr-20 06:30N 35°27' E 139°40'0 0.0
2018-Apr-20 06:01N 35°27' E 139°40'0 0.0
2018-Apr-20 05:30N 35°27' E 139°40'0 0.0
2018-Apr-20 05:00N 35°27' E 139°40'0 0.0
2018-Apr-20 04:30N 35°27' E 139°40'0 0.0
2018-Apr-20 04:01N 35°27' E 139°40'0 0.0
2018-Apr-20 03:30N 35°27' E 139°40'0 0.0
2018-Apr-20 03:01N 35°27' E 139°40'0 0.0
2018-Apr-20 02:31N 35°27' E 139°40'0 0.0
2018-Apr-20 02:01N 35°27' E 139°40'0 0.0
2018-Apr-20 01:30N 35°27' E 139°40'0 0.0
2018-Apr-20 01:01N 35°27' E 139°40'0 0.0
2018-Apr-20 00:31N 35°27' E 139°40'0 0.0
2018-Apr-20 00:00N 35°27' E 139°40'0 0.0
2018-Apr-19 23:31N 35°27' E 139°40'0 0.0
2018-Apr-19 23:00N 35°27' E 139°40'2 3.1
2018-Apr-19 22:31N 35°28' E 139°41'0 0.5
2018-Apr-19 22:01N 35°28' E 139°41'1 2.8
2018-Apr-19 21:31N 35°28' E 139°43'2 3.4
2018-Apr-19 21:00N 35°27' E 139°44'2 3.9
2018-Apr-19 20:31N 35°27' E 139°42'0 0.0
2018-Apr-19 20:01N 35°27' E 139°42'0 0.0
2018-Apr-19 19:31N 35°27' E 139°42'0 0.0
2018-Apr-19 19:01N 35°27' E 139°42'0 0.0
2018-Apr-19 18:30N 35°27' E 139°42'0 0.0
2018-Apr-19 18:00N 35°27' E 139°42'0 0.0
2018-Apr-19 17:31N 35°27' E 139°42'0 0.0
2018-Apr-19 17:00N 35°27' E 139°42'0 0.0
2018-Apr-19 16:31N 35°27' E 139°42'0 0.0
2018-Apr-19 16:01N 35°27' E 139°42'0 0.0
2018-Apr-19 15:31N 35°27' E 139°42'0 0.0
2018-Apr-19 15:00N 35°27' E 139°42'0 0.0
2018-Apr-19 14:31N 35°27' E 139°42'1 1.7
2018-Apr-19 14:01N 35°27' E 139°41'0 0.1
2018-Apr-19 13:30N 35°27' E 139°41'1 2.5
2018-Apr-19 13:00N 35°27' E 139°40'0 0.0
2018-Apr-19 12:31N 35°27' E 139°40'1 2.9
2018-Apr-19 12:01N 35°28' E 139°41'611.4
2018-Apr-19 11:31N 35°30' E 139°47'3 5.6
2018-Apr-19 11:00N 35°30' E 139°44'0 0.7
2018-Apr-19 10:30N 35°30' E 139°43'1 2.7
2018-Apr-19 10:00N 35°29' E 139°42'1 2.4
2018-Apr-19 09:30N 35°28' E 139°42'0 0.4
2018-Apr-19 09:00N 35°28' E 139°41'1 1.5
2018-Apr-19 08:30N 35°28' E 139°42'0 0.0
2018-Apr-19 08:01N 35°28' E 139°42'0 0.0
2018-Apr-19 07:31N 35°28' E 139°42'2 3.8
2018-Apr-19 07:00N 35°26' E 139°41'0 0.1
2018-Apr-19 06:30N 35°26' E 139°41'1 2.4
2018-Apr-19 06:00N 35°27' E 139°40'0 0.0
2018-Apr-19 05:30N 35°27' E 139°40'0 0.0
2018-Apr-19 05:01N 35°27' E 139°40'0 0.0
2018-Apr-19 04:31N 35°27' E 139°40'0 0.0
2018-Apr-19 04:00N 35°27' E 139°40'0 0.0
2018-Apr-19 03:31N 35°27' E 139°40'0 0.0
2018-Apr-19 03:00N 35°27' E 139°40'0 0.0
2018-Apr-19 02:31N 35°27' E 139°40'0 0.0
2018-Apr-19 02:01N 35°27' E 139°40'0 0.0
2018-Apr-19 01:30N 35°27' E 139°40'0 0.0
2018-Apr-19 01:00N 35°27' E 139°40'0 0.6
2018-Apr-19 00:31N 35°27' E 139°39'0 0.3
2018-Apr-19 00:01N 35°27' E 139°40'0 0.1
2018-Apr-18 23:30N 35°27' E 139°40'3 6.3
2018-Apr-18 23:01N 35°29' E 139°42'4 7.4
2018-Apr-18 22:31N 35°31' E 139°46'2 3.3
2018-Apr-18 22:01N 35°30' E 139°45'3 6.5
2018-Apr-18 21:31N 35°27' E 139°43'1 2.3
2018-Apr-18 21:01N 35°26' E 139°44'4 7.4
2018-Apr-18 20:30N 35°27' E 139°40'0 0.6
2018-Apr-18 20:00N 35°27' E 139°40'0 0.0
2018-Apr-18 19:31N 35°27' E 139°40'0 0.0
2018-Apr-18 19:01N 35°27' E 139°40'0 0.0
2018-Apr-18 18:30N 35°27' E 139°40'0 0.0
2018-Apr-18 18:00N 35°27' E 139°40'0 0.0
2018-Apr-18 17:30N 35°27' E 139°40'0 0.0
2018-Apr-18 17:00N 35°27' E 139°40'0 0.0
2018-Apr-18 16:30N 35°27' E 139°40'0 0.0
2018-Apr-18 16:01N 35°27' E 139°40'0 0.0
2018-Apr-18 15:30N 35°27' E 139°40'0 0.0
2018-Apr-18 15:00N 35°27' E 139°40'0 0.0
2018-Apr-18 14:31N 35°27' E 139°40'0 0.0
2018-Apr-18 14:00N 35°27' E 139°40'0 0.0
2018-Apr-18 13:30N 35°27' E 139°40'0 0.0
2018-Apr-18 13:01N 35°27' E 139°40'0 0.0
2018-Apr-18 12:31N 35°27' E 139°40'0 0.0
2018-Apr-18 12:01N 35°27' E 139°40'0 0.0
2018-Apr-18 11:31N 35°27' E 139°40'0 0.0
2018-Apr-18 11:01N 35°27' E 139°40'0 0.0
2018-Apr-18 10:29N 35°27' E 139°40'0 0.0
2018-Apr-18 10:00N 35°27' E 139°40'1 2.0
2018-Apr-18 09:30N 35°27' E 139°41'1 2.2
2018-Apr-18 09:01N 35°26' E 139°42'2 4.5
2018-Apr-18 08:30N 35°26' E 139°45'3 5.2
2018-Apr-18 08:00N 35°27' E 139°42'0 0.0
2018-Apr-18 07:30N 35°27' E 139°42'0 0.0
2018-Apr-18 07:00N 35°27' E 139°42'0 0.0
2018-Apr-18 06:30N 35°27' E 139°42'0 0.0
2018-Apr-18 06:00N 35°27' E 139°42'1 1.8
2018-Apr-18 05:31N 35°27' E 139°43'1 2.0
2018-Apr-18 05:01N 35°28' E 139°42'0 0.1
2018-Apr-18 04:30N 35°28' E 139°42'2 3.4
2018-Apr-18 04:00N 35°27' E 139°40'0 0.0
2018-Apr-18 03:30N 35°27' E 139°40'0 0.0
2018-Apr-18 03:00N 35°27' E 139°40'0 0.0
2018-Apr-18 02:30N 35°27' E 139°40'0 0.0
2018-Apr-18 02:00N 35°27' E 139°40'0 0.0
2018-Apr-18 01:30N 35°27' E 139°40'0 0.0
2018-Apr-18 01:00N 35°27' E 139°40'0 0.0
2018-Apr-18 00:30N 35°27' E 139°40'0 0.0
2018-Apr-18 00:00N 35°27' E 139°40'0 0.0
2018-Apr-17 23:30N 35°27' E 139°40'0 0.0
2018-Apr-17 23:00N 35°27' E 139°40'0 0.0
2018-Apr-17 22:30N 35°27' E 139°40'0 0.0
2018-Apr-17 22:00N 35°27' E 139°40'0 0.0
2018-Apr-17 21:30N 35°27' E 139°40'0 0.0
2018-Apr-17 21:00N 35°27' E 139°40'0 0.0
2018-Apr-17 20:30N 35°27' E 139°40'0 0.0
2018-Apr-17 20:00N 35°27' E 139°40'0 0.0
2018-Apr-17 19:30N 35°27' E 139°40'0 0.0
2018-Apr-17 19:00N 35°27' E 139°40'0 0.0
2018-Apr-17 18:31N 35°27' E 139°40'0 0.0
2018-Apr-17 18:00N 35°27' E 139°40'0 0.0
2018-Apr-17 17:30N 35°27' E 139°40'0 0.0
2018-Apr-17 17:00N 35°27' E 139°40'0 0.0
2018-Apr-17 16:31N 35°27' E 139°40'0 0.0
2018-Apr-17 16:00N 35°27' E 139°40'0 0.0
2018-Apr-17 15:30N 35°27' E 139°40'0 0.0
2018-Apr-17 15:00N 35°27' E 139°40'0 0.0
2018-Apr-17 14:30N 35°27' E 139°40'0 0.0
2018-Apr-16 23:18N 35°27' E 139°40'1 2.5
2018-Apr-16 23:00N 35°28' E 139°40'1 2.1
2018-Apr-16 22:30N 35°28' E 139°41'1 2.0
2018-Apr-16 22:00N 35°28' E 139°42'1 1.4
2018-Apr-16 21:30N 35°27' E 139°42'0 0.0
2018-Apr-16 21:00N 35°27' E 139°42'1 1.5
2018-Apr-16 20:30N 35°27' E 139°42'1 1.3
2018-Apr-16 20:00N 35°26' E 139°41'0 0.1
2018-Apr-16 19:30N 35°26' E 139°41'0 0.8
2018-Apr-16 19:00N 35°27' E 139°41'0 0.0
2018-Apr-16 18:30N 35°27' E 139°41'0 0.0
2018-Apr-16 18:00N 35°27' E 139°41'0 0.0
2018-Apr-16 17:30N 35°27' E 139°41'0 0.0
2018-Apr-16 17:00N 35°27' E 139°41'0 0.0
2018-Apr-16 16:30N 35°27' E 139°41'0 0.0
2018-Apr-16 16:00N 35°27' E 139°41'0 0.0
2018-Apr-16 15:30N 35°27' E 139°41'0 0.0
2018-Apr-16 15:00N 35°27' E 139°41'0 0.0
2018-Apr-16 14:30N 35°27' E 139°41'0 0.0
2018-Apr-16 14:00N 35°27' E 139°41'0 0.2
2018-Apr-16 13:30N 35°27' E 139°41'0 0.2
2018-Apr-16 13:00N 35°27' E 139°41'1 2.5
2018-Apr-16 12:30N 35°26' E 139°42'1 1.1
2018-Apr-16 12:00N 35°27' E 139°42'0 0.0
2018-Apr-16 11:30N 35°27' E 139°42'0 0.0
2018-Apr-16 11:00N 35°27' E 139°42'0 0.0
2018-Apr-16 10:30N 35°27' E 139°42'0 0.0
2018-Apr-16 10:00N 35°27' E 139°42'0 0.0
2018-Apr-16 09:30N 35°27' E 139°42'1 2.0
2018-Apr-16 09:00N 35°28' E 139°42'1 2.0
2018-Apr-16 08:30N 35°27' E 139°43'2 3.8
2018-Apr-16 08:00N 35°26' E 139°42'2 4.4
2018-Apr-16 07:30N 35°27' E 139°40'0 0.0
2018-Apr-16 07:00N 35°27' E 139°40'0 0.0
2018-Apr-16 06:30N 35°27' E 139°40'0 0.0
2018-Apr-16 06:00N 35°27' E 139°40'3 6.7
2018-Apr-16 05:30N 35°29' E 139°43'0 0.6
2018-Apr-16 05:00N 35°29' E 139°43'2 4.6
2018-Apr-16 04:30N 35°27' E 139°42'0 0.0
2018-Apr-16 04:00N 35°27' E 139°42'0 0.0
2018-Apr-16 03:30N 35°27' E 139°42'2 4.8
2018-Apr-16 03:01N 35°29' E 139°45'0 0.5
2018-Apr-16 02:30N 35°29' E 139°44'2 3.8
2018-Apr-16 02:00N 35°27' E 139°43'3 5.9
2018-Apr-16 01:30N 35°27' E 139°40'0 0.0
2018-Apr-16 01:00N 35°27' E 139°40'0 0.0
2018-Apr-16 00:30N 35°27' E 139°40'0 0.0
2018-Apr-16 00:00N 35°27' E 139°40'3 5.0
2018-Apr-15 23:30N 35°27' E 139°43'4 7.6
2018-Apr-15 23:00N 35°30' E 139°46'1 1.2
2018-Apr-15 22:30N 35°30' E 139°47'0 0.6
2018-Apr-15 22:01N 35°30' E 139°47'1 2.0
2018-Apr-15 21:30N 35°29' E 139°46'4 7.9
2018-Apr-15 21:00N 35°27' E 139°42'2 3.7
2018-Apr-15 20:30N 35°27' E 139°40'0 0.0
2018-Apr-15 20:00N 35°27' E 139°40'0 0.0
2018-Apr-15 19:30N 35°27' E 139°40'0 0.0
2018-Apr-15 07:50N 35°27' E 139°40'0 0.0
2018-Apr-15 07:30N 35°27' E 139°40'0 0.0
2018-Apr-15 07:00N 35°27' E 139°40'0 0.0
2018-Apr-15 06:30N 35°27' E 139°40'0 0.0
2018-Apr-15 06:00N 35°27' E 139°40'0 0.0
2018-Apr-15 05:30N 35°27' E 139°40'0 0.0
2018-Apr-15 05:00N 35°27' E 139°40'0 0.0
2018-Apr-15 04:30N 35°27' E 139°40'0 0.0
2018-Apr-15 04:00N 35°27' E 139°40'0 0.0
2018-Apr-15 03:30N 35°27' E 139°40'0 0.0
2018-Apr-15 03:00N 35°27' E 139°40'0 0.0
2018-Apr-15 02:30N 35°27' E 139°40'0 0.0
2018-Apr-15 02:00N 35°27' E 139°40'0 0.0
2018-Apr-15 01:30N 35°27' E 139°40'0 0.0
2018-Apr-15 01:00N 35°27' E 139°40'0 0.0
2018-Apr-15 00:30N 35°27' E 139°40'0 0.0
2018-Apr-15 00:00N 35°27' E 139°40'0 0.0
2018-Apr-14 23:30N 35°27' E 139°40'4 7.2
2018-Apr-14 23:00N 35°29' E 139°43'3 6.3
2018-Apr-14 22:30N 35°31' E 139°46'0 0.9
2018-Apr-14 22:00N 35°30' E 139°46'2 3.6
2018-Apr-14 21:31N 35°29' E 139°47'3 6.1
2018-Apr-14 21:00N 35°28' E 139°44'4 7.1
2018-Apr-14 20:30N 35°27' E 139°40'0 0.0
2018-Apr-14 20:00N 35°27' E 139°40'0 0.0
2018-Apr-14 19:30N 35°27' E 139°40'0 0.0
2018-Apr-14 19:00N 35°27' E 139°40'0 0.0
2018-Apr-14 18:30N 35°27' E 139°40'0 0.0
2018-Apr-14 18:01N 35°27' E 139°40'0 0.0
2018-Apr-14 17:31N 35°27' E 139°40'0 0.0
2018-Apr-14 17:00N 35°27' E 139°40'0 0.0
2018-Apr-14 16:31N 35°27' E 139°40'0 0.0
2018-Apr-14 16:00N 35°27' E 139°40'0 0.0
2018-Apr-14 15:30N 35°27' E 139°40'0 0.0
2018-Apr-14 15:01N 35°27' E 139°40'0 0.0
2018-Apr-14 14:31N 35°27' E 139°40'0 0.0
2018-Apr-14 14:01N 35°27' E 139°40'0 0.0
2018-Apr-14 13:31N 35°27' E 139°40'0 0.0
2018-Apr-14 13:01N 35°27' E 139°40'0 0.0
2018-Apr-14 12:30N 35°27' E 139°40'0 0.0
2018-Apr-14 12:00N 35°27' E 139°40'0 0.0
2018-Apr-14 11:31N 35°27' E 139°40'0 0.0
2018-Apr-14 11:00N 35°27' E 139°40'0 0.0
2018-Apr-14 10:30N 35°27' E 139°40'0 0.0
2018-Apr-14 10:01N 35°27' E 139°40'0 0.0
2018-Apr-14 09:30N 35°27' E 139°40'0 0.0
2018-Apr-14 09:00N 35°27' E 139°40'0 0.0
2018-Apr-14 08:31N 35°27' E 139°40'0 0.0
2018-Apr-14 08:00N 35°27' E 139°40'0 0.0
2018-Apr-14 07:30N 35°27' E 139°40'0 0.0
2018-Apr-14 07:00N 35°27' E 139°40'0 0.0
2018-Apr-14 06:31N 35°27' E 139°40'0 0.0
2018-Apr-14 06:00N 35°27' E 139°40'0 0.0
2018-Apr-14 05:30N 35°27' E 139°40'0 0.0
2018-Apr-14 05:00N 35°27' E 139°40'0 0.0
2018-Apr-14 04:30N 35°27' E 139°40'0 0.0
2018-Apr-14 04:00N 35°27' E 139°40'0 0.0
2018-Apr-14 03:30N 35°27' E 139°40'0 0.0
2018-Apr-14 03:00N 35°27' E 139°40'0 0.0
2018-Apr-14 02:30N 35°27' E 139°40'0 0.0
2018-Apr-14 02:00N 35°27' E 139°40'3 6.0
2018-Apr-14 01:30N 35°24' E 139°42'2 4.9
2018-Apr-14 01:00N 35°24' E 139°39'1 1.4
2018-Apr-14 00:30N 35°24' E 139°38'0 0.0
2018-Apr-14 00:00N 35°24' E 139°38'1 3.0
2018-Apr-13 23:31N 35°23' E 139°40'0 0.0
2018-Apr-13 23:00N 35°23' E 139°40'3 5.5
2018-Apr-13 22:31N 35°26' E 139°42'1 2.2
2018-Apr-13 22:01N 35°27' E 139°41'1 2.0
2018-Apr-13 21:30N 35°27' E 139°42'2 3.6
2018-Apr-13 21:00N 35°27' E 139°40'0 0.9
2018-Apr-13 20:29N 35°27' E 139°40'0 0.0
2018-Apr-13 20:00N 35°27' E 139°40'0 0.0
2018-Apr-13 19:30N 35°27' E 139°40'0 0.0
2018-Apr-13 19:00N 35°27' E 139°40'0 0.0
2018-Apr-13 18:30N 35°27' E 139°40'0 0.0
2018-Apr-13 18:00N 35°27' E 139°40'0 0.0
2018-Apr-13 17:30N 35°27' E 139°40'0 0.0
2018-Apr-13 17:00N 35°27' E 139°40'0 0.0
2018-Apr-13 16:30N 35°27' E 139°40'0 0.0
2018-Apr-13 16:00N 35°27' E 139°40'0 0.0
2018-Apr-13 15:30N 35°27' E 139°40'0 0.0
2018-Apr-13 15:00N 35°27' E 139°40'0 0.0
2018-Apr-13 14:30N 35°27' E 139°40'0 0.0
2018-Apr-13 14:00N 35°27' E 139°40'0 0.0
2018-Apr-13 13:30N 35°27' E 139°40'0 0.0
2018-Apr-13 13:00N 35°27' E 139°40'0 0.0
2018-Apr-13 12:29N 35°27' E 139°40'0 0.0
2018-Apr-13 12:00N 35°27' E 139°40'0 0.0
2018-Apr-13 11:30N 35°27' E 139°40'0 0.0
2018-Apr-13 11:00N 35°27' E 139°40'0 0.0
2018-Apr-13 09:28N 35°27' E 139°40'0 0.0
2018-Apr-13 09:01N 35°27' E 139°40'0 0.0
2018-Apr-13 08:30N 35°27' E 139°40'0 0.0
2018-Apr-13 08:01N 35°27' E 139°40'2 3.1
2018-Apr-13 07:30N 35°28' E 139°41'0 0.0
2018-Apr-13 07:00N 35°28' E 139°41'2 3.1
2018-Apr-13 06:30N 35°27' E 139°40'0 0.0
2018-Apr-13 06:00N 35°27' E 139°40'0 0.0
2018-Apr-13 05:30N 35°27' E 139°40'0 0.0
2018-Apr-13 05:00N 35°27' E 139°40'1 1.2
2018-Apr-13 04:30N 35°27' E 139°40'510.1
2018-Apr-13 04:00N 35°29' E 139°46'2 3.6
2018-Apr-13 03:30N 35°30' E 139°44'1 2.4
2018-Apr-13 03:00N 35°29' E 139°43'3 6.0
2018-Apr-13 02:30N 35°28' E 139°40'1 1.3
2018-Apr-13 02:00N 35°27' E 139°40'0 0.0
2018-Apr-13 01:30N 35°27' E 139°40'0 0.0
2018-Apr-13 01:00N 35°27' E 139°40'0 0.8
2018-Apr-13 00:30N 35°27' E 139°39'0 0.2
2018-Apr-13 00:00N 35°27' E 139°39'1 3.0
2018-Apr-12 23:31N 35°29' E 139°39'2 3.4
2018-Apr-12 23:00N 35°27' E 139°40'0 0.0
2018-Apr-12 22:29N 35°27' E 139°40'0 0.0
2018-Apr-12 22:00N 35°27' E 139°40'0 0.0
2018-Apr-12 21:30N 35°27' E 139°40'0 0.0
2018-Apr-12 21:00N 35°27' E 139°40'0 0.0
2018-Apr-12 20:30N 35°27' E 139°40'0 0.0
2018-Apr-12 20:00N 35°27' E 139°40'0 0.0
2018-Apr-12 19:30N 35°27' E 139°40'0 0.0
2018-Apr-12 19:00N 35°27' E 139°40'0 0.0
2018-Apr-12 18:30N 35°27' E 139°40'0 0.0
2018-Apr-12 18:00N 35°27' E 139°40'0 0.0
2018-Apr-12 17:30N 35°27' E 139°40'0 0.0
2018-Apr-12 17:00N 35°27' E 139°40'0 0.0
2018-Apr-12 16:30N 35°27' E 139°40'0 0.0
2018-Apr-12 16:00N 35°27' E 139°40'0 0.0
2018-Apr-12 15:30N 35°27' E 139°40'0 0.0
2018-Apr-12 15:00N 35°27' E 139°40'0 0.0
2018-Apr-12 14:30N 35°27' E 139°40'0 0.0
2018-Apr-12 14:00N 35°27' E 139°40'0 0.0
2018-Apr-12 13:30N 35°27' E 139°40'0 0.0
2018-Apr-12 13:00N 35°27' E 139°40'0 0.0
2018-Apr-12 12:30N 35°27' E 139°40'0 0.0
2018-Apr-12 12:00N 35°27' E 139°40'0 0.0
2018-Apr-12 11:30N 35°27' E 139°40'0 0.0
2018-Apr-12 11:00N 35°27' E 139°40'0 0.0
2018-Apr-12 10:30N 35°27' E 139°40'0 0.0
2018-Apr-12 10:00N 35°27' E 139°40'0 0.0
2018-Apr-12 08:32N 35°27' E 139°40'0 0.0
2018-Apr-12 08:30N 35°27' E 139°40'0 0.0
2018-Apr-12 08:00N 35°27' E 139°40'0 0.0
2018-Apr-12 07:31N 35°27' E 139°40'0 0.0
2018-Apr-12 07:01N 35°27' E 139°40'0 0.0
2018-Apr-12 06:30N 35°27' E 139°40'0 0.0
2018-Apr-12 06:00N 35°27' E 139°40'0 0.0
2018-Apr-12 05:31N 35°27' E 139°40'0 0.0
2018-Apr-12 05:00N 35°27' E 139°40'0 0.0
2018-Apr-12 04:31N 35°27' E 139°40'0 0.0
2018-Apr-12 04:00N 35°27' E 139°40'0 0.0
2018-Apr-12 03:30N 35°27' E 139°40'0 0.0
2018-Apr-12 02:59N 35°27' E 139°40'0 0.0
2018-Apr-12 02:31N 35°27' E 139°40'0 0.9
2018-Apr-12 02:01N 35°27' E 139°40'3 5.1
2018-Apr-12 01:30N 35°28' E 139°43'0 0.0
2018-Apr-12 01:00N 35°28' E 139°43'0 0.4
2018-Apr-12 00:30N 35°28' E 139°43'2 4.4
2018-Apr-12 00:01N 35°26' E 139°45'1 2.6
2018-Apr-11 23:31N 35°26' E 139°43'3 6.4
2018-Apr-11 23:00N 35°27' E 139°40'0 0.0
2018-Apr-11 22:31N 35°27' E 139°40'0 0.0
2018-Apr-11 22:00N 35°27' E 139°40'0 0.0
2018-Apr-11 21:30N 35°27' E 139°40'0 0.0
2018-Apr-11 21:01N 35°27' E 139°40'0 0.0
2018-Apr-11 20:31N 35°27' E 139°40'0 0.0
2018-Apr-11 20:01N 35°27' E 139°40'0 0.0
2018-Apr-11 19:30N 35°27' E 139°40'0 0.0
2018-Apr-11 19:00N 35°27' E 139°40'0 0.0
2018-Apr-11 18:30N 35°27' E 139°40'0 0.0
2018-Apr-11 18:00N 35°27' E 139°40'0 0.0
2018-Apr-11 17:30N 35°27' E 139°40'0 0.0
2018-Apr-11 17:00N 35°27' E 139°40'0 0.0
2018-Apr-11 16:30N 35°27' E 139°40'0 0.0
2018-Apr-11 16:00N 35°27' E 139°40'0 0.0
2018-Apr-11 15:30N 35°27' E 139°40'0 0.0
2018-Apr-11 15:00N 35°27' E 139°40'0 0.0
2018-Apr-11 14:30N 35°27' E 139°40'0 0.0
2018-Apr-11 14:00N 35°27' E 139°40'  

Dump ship's entire track history